Time;durP1;ratioP1;P1;durP2;ratioP2;P2;SDS_P1;SDS_P2;PMS_P1;PMS_P2;Temp;Humidity;BMP_temperature;BMP_pressure;BME280_temperature;BME280_humidity;BME280_pressure;Samples;Min_cycle;Max_cycle;Signal;HPM_P1;HPM_P2
2022/12/11 00:00:56;;;;;;;22.17;13.52;;;1.10;1.00;;;;;;6148376;23;20205;-91
2022/12/11 00:03:30;;;;;;;26.27;14.23;;;1.10;1.00;;;;;;6165812;23;20209;-92
2022/12/11 00:06:00;;;;;;;21.58;14.48;;;1.20;1.00;;;;;;6151555;23;20209;-91
2022/12/11 00:08:27;;;;;;;20.00;14.50;;;1.20;1.00;;;;;;6158257;23;20217;-90
2022/12/11 00:14:17;;;;;;;23.63;13.55;;;1.10;1.00;;;;;;6084556;23;20225;-92
2022/12/11 00:16:50;;;;;;;21.67;14.38;;;1.20;1.00;;;;;;6138574;23;20206;-91
2022/12/11 00:19:18;;;;;;;20.58;14.32;;;1.10;1.00;;;;;;6126932;23;20758;-93
2022/12/11 00:21:51;;;;;;;21.13;14.55;;;1.20;1.00;;;;;;6135444;23;20216;-90
2022/12/11 00:24:18;;;;;;;19.83;12.52;;;1.20;1.00;;;;;;6114357;23;20986;-91
2022/12/11 00:26:51;;;;;;;24.05;15.55;;;1.20;1.00;;;;;;6147202;23;20287;-90
2022/12/11 00:29:20;;;;;;;21.98;13.60;;;1.10;1.00;;;;;;6131074;23;20212;-90
2022/12/11 00:31:49;;;;;;;21.13;12.82;;;1.10;1.00;;;;;;6150974;23;20212;-91
2022/12/11 00:34:27;;;;;;;22.77;13.73;;;1.30;1.00;;;;;;6145967;23;20667;-91
2022/12/11 00:36:59;;;;;;;20.80;13.13;;;1.50;1.00;;;;;;6146409;23;20230;-91
2022/12/11 00:39:31;;;;;;;20.42;11.52;;;1.50;1.00;;;;;;6145127;23;20206;-92
2022/12/11 00:41:59;;;;;;;22.45;14.50;;;1.50;1.00;;;;;;6147792;23;20279;-91
2022/12/11 00:44:38;;;;;;;23.15;12.73;;;1.50;1.00;;;;;;6156324;23;20214;-92
2022/12/11 00:47:17;;;;;;;20.50;12.85;;;1.50;1.00;;;;;;6112657;23;20310;-92
2022/12/11 00:49:51;;;;;;;19.17;12.80;;;1.60;1.00;;;;;;6115167;23;20211;-92
2022/12/11 00:52:42;;;;;;;;;;;;;;;;;;;;;
2022/12/11 00:55:28;;;;;;;21.80;14.35;;;1.70;1.00;;;;;;6155366;23;40271;-91
2022/12/11 00:57:59;;;;;;;20.95;13.25;;;1.60;1.00;;;;;;6145084;23;20310;-92
2022/12/11 01:00:39;;;;;;;18.38;12.63;;;1.50;1.00;;;;;;6127867;23;20298;-89
2022/12/11 01:03:20;;;;;;;19.60;12.25;;;1.40;1.00;;;;;;6168091;23;20224;-91
2022/12/11 01:06:00;;;;;;;21.95;12.43;;;1.40;1.00;;;;;;6155474;23;20261;-90
2022/12/11 01:08:33;;;;;;;18.75;11.63;;;1.40;1.00;;;;;;6148522;23;20213;-88
2022/12/11 01:11:10;;;;;;;20.90;13.70;;;1.30;1.00;;;;;;6167098;23;20221;-89
2022/12/11 01:13:41;;;;;;;22.50;13.48;;;1.30;1.00;;;;;;6160775;23;20229;-90
2022/12/11 01:16:17;;;;;;;20.70;12.55;;;1.50;1.00;;;;;;6162374;23;20223;-90
2022/12/11 01:18:58;;;;;;;17.42;13.60;;;1.50;1.00;;;;;;6163943;23;20207;-91
2022/12/11 01:21:29;;;;;;;23.80;14.20;;;1.50;1.00;;;;;;6133597;23;20206;-89
2022/12/11 01:24:01;;;;;;;20.88;12.73;;;1.60;1.00;;;;;;6163486;23;20209;-91
2022/12/11 01:26:30;;;;;;;21.98;13.50;;;1.50;1.00;;;;;;6133967;23;20201;-92
2022/12/11 01:28:59;;;;;;;20.63;13.40;;;1.50;1.00;;;;;;6165915;23;20205;-91
2022/12/11 01:31:41;;;;;;;;;;;;;;;;;;;;;
2022/12/11 01:34:11;;;;;;;20.98;12.18;;;1.40;1.00;;;;;;6160770;23;39255;-92
2022/12/11 01:36:47;;;;;;;23.35;13.40;;;1.50;1.00;;;;;;6144175;23;20943;-90
2022/12/11 01:39:21;;;;;;;20.95;13.90;;;1.60;1.00;;;;;;6137590;23;20311;-92
2022/12/11 01:41:50;;;;;;;19.73;12.68;;;1.50;1.00;;;;;;6159646;23;20205;-91
2022/12/11 01:44:58;;;;;;;19.35;12.77;;;1.50;1.00;;;;;;6117657;23;20204;-92
2022/12/11 01:47:29;;;;;;;21.50;13.55;;;1.40;1.00;;;;;;6159126;23;20226;-91
2022/12/11 01:49:57;;;;;;;20.35;12.07;;;1.40;1.00;;;;;;6121026;23;20888;-93
2022/12/11 01:52:37;;;;;;;;;;;;;;;;;;;;;
2022/12/11 01:55:14;;;;;;;24.25;13.93;;;1.30;1.00;;;;;;6110210;23;39643;-92
2022/12/11 01:57:55;;;;;;;19.92;12.23;;;1.20;1.00;;;;;;6121887;23;20228;-92
2022/12/11 02:00:26;;;;;;;20.10;13.63;;;1.20;1.00;;;;;;6157115;23;20212;-91
2022/12/11 02:03:06;;;;;;;19.55;12.80;;;1.20;1.00;;;;;;6140147;23;20214;-89
2022/12/11 02:08:36;;;;;;;23.88;13.23;;;1.00;1.00;;;;;;6112492;23;20203;-92
2022/12/11 02:11:16;;;;;;;18.25;12.35;;;0.90;1.00;;;;;;6136026;23;21090;-91
2022/12/11 02:13:55;;;;;;;21.08;13.68;;;0.90;1.00;;;;;;6118801;23;20214;-90
2022/12/11 02:16:35;;;;;;;23.13;14.80;;;0.90;1.00;;;;;;6125896;23;20230;-91
2022/12/11 02:19:26;;;;;;;19.55;14.35;;;0.90;1.00;;;;;;6108956;23;20399;-92
2022/12/11 02:22:02;;;;;;;21.83;12.77;;;0.80;1.00;;;;;;6135002;23;20218;-91
2022/12/11 02:24:52;;;;;;;20.50;14.15;;;0.70;1.00;;;;;;6111667;23;20276;-92
2022/12/11 02:27:36;;;;;;;22.80;12.93;;;0.70;1.00;;;;;;6108565;23;20233;-89
2022/12/11 02:30:44;;;;;;;19.38;13.13;;;0.60;1.00;;;;;;6128616;23;20270;-89
2022/12/11 02:33:15;;;;;;;20.33;12.18;;;0.50;1.00;;;;;;6048565;23;20993;-92
2022/12/11 02:38:45;;;;;;;26.63;14.50;;;0.40;1.00;;;;;;6120448;23;20248;-90
2022/12/11 02:41:23;;;;;;;23.08;14.52;;;0.40;1.00;;;;;;6140725;23;20682;-90
2022/12/11 02:44:03;;;;;;;18.40;12.13;;;0.40;1.00;;;;;;6127088;23;20241;-91
2022/12/11 02:46:36;;;;;;;22.92;13.85;;;0.40;1.00;;;;;;6093918;23;20252;-90
2022/12/11 02:49:07;;;;;;;20.45;12.30;;;0.30;1.00;;;;;;6123557;23;20228;-90
2022/12/11 02:51:43;;;;;;;20.20;12.90;;;0.30;1.00;;;;;;6107027;23;22036;-91
2022/12/11 02:54:24;;;;;;;21.00;13.10;;;0.30;1.00;;;;;;6120519;23;20222;-92
2022/12/11 02:57:03;;;;;;;21.90;13.18;;;0.20;1.00;;;;;;6126066;23;20204;-89
2022/12/11 02:59:42;;;;;;;24.67;14.75;;;0.20;1.00;;;;;;6135734;23;20213;-91
2022/12/11 03:02:24;;;;;;;25.50;13.82;;;0.20;1.00;;;;;;6130466;23;20236;-91
2022/12/11 03:04:56;;;;;;;22.90;13.48;;;0.20;1.00;;;;;;6130364;23;20220;-92
2022/12/11 03:07:34;;;;;;;21.20;12.75;;;0.30;1.00;;;;;;6137962;23;20224;-90
2022/12/11 03:10:06;;;;;;;22.13;13.55;;;0.20;1.00;;;;;;6138799;23;20244;-90
2022/12/11 03:12:43;;;;;;;22.27;14.98;;;0.20;1.00;;;;;;6139710;23;20213;-90
2022/12/11 03:15:15;;;;;;;23.45;15.77;;;0.20;1.00;;;;;;6146910;23;20212;-90
2022/12/11 03:18:04;;;;;;;24.02;14.15;;;0.30;1.00;;;;;;6126127;23;20246;-91
2022/12/11 03:20:42;;;;;;;25.75;12.90;;;0.30;1.00;;;;;;6137839;23;20676;-90
2022/12/11 03:23:28;;;;;;;21.98;13.85;;;0.30;1.00;;;;;;6142784;23;20680;-91
2022/12/11 03:26:02;;;;;;;23.65;14.80;;;0.30;1.00;;;;;;6139131;23;20209;-91
2022/12/11 03:28:46;;;;;;;23.17;14.02;;;0.30;1.00;;;;;;6150319;23;20209;-92
2022/12/11 03:31:44;;;;;;;26.38;14.80;;;0.20;1.00;;;;;;6111042;23;20410;-92
2022/12/11 03:34:53;;;;;;;25.33;13.75;;;0.20;1.00;;;;;;6160055;23;20192;-90
2022/12/11 03:37:34;;;;;;;21.50;13.90;;;0.20;1.00;;;;;;6165893;23;20241;-91
2022/12/11 03:40:15;;;;;;;23.63;13.00;;;0.20;1.00;;;;;;6146207;23;20253;-91
2022/12/11 03:46:15;;;;;;;24.55;14.73;;;0.20;1.00;;;;;;6034043;23;20928;-92
2022/12/11 03:49:04;;;;;;;22.55;14.30;;;0.20;1.00;;;;;;6123678;23;20221;-90
2022/12/11 03:51:43;;;;;;;23.63;13.45;;;0.20;1.00;;;;;;6159504;23;20215;-91
2022/12/11 03:54:32;;;;;;;21.92;13.25;;;0.20;1.00;;;;;;6133829;23;20261;-90
2022/12/11 03:57:06;;;;;;;24.15;13.80;;;0.10;1.00;;;;;;6148531;23;20261;-91
2022/12/11 03:59:36;;;;;;;26.67;14.60;;;0.10;1.00;;;;;;6136925;23;20237;-91
2022/12/11 04:02:12;;;;;;;24.25;14.60;;;0.10;1.00;;;;;;6132975;23;20671;-90
2022/12/11 04:04:45;;;;;;;22.88;13.38;;;0.10;1.00;;;;;;6138807;23;20280;-91
2022/12/11 04:07:14;;;;;;;22.85;15.48;;;0.10;1.00;;;;;;6142875;23;20220;-89
2022/12/11 04:09:45;;;;;;;25.80;14.70;;;0.10;1.00;;;;;;6129177;23;20914;-91
2022/12/11 04:12:24;;;;;;;23.98;14.75;;;0.00;1.00;;;;;;6132921;23;20256;-89
2022/12/11 04:15:03;;;;;;;19.50;13.05;;;0.00;1.00;;;;;;6139499;23;20257;-91
2022/12/11 04:26:17;;;;;;;25.08;14.05;;;-0.10;1.00;;;;;;6128369;23;20215;-92
2022/12/11 04:28:47;;;;;;;19.85;13.05;;;-0.10;1.00;;;;;;6126692;23;21104;-90
2022/12/11 04:31:23;;;;;;;19.25;13.43;;;-0.20;1.00;;;;;;6136228;23;20209;-90
2022/12/11 04:33:56;;;;;;;19.40;12.85;;;-0.20;1.00;;;;;;6119070;23;20217;-92
2022/12/11 04:36:27;;;;;;;23.80;13.40;;;-0.10;1.00;;;;;;6116813;23;20673;-90
2022/12/11 04:38:55;;;;;;;22.10;13.30;;;-0.10;1.00;;;;;;6145160;23;20740;-91
2022/12/11 04:41:37;;;;;;;;;;;;;;;;;;;;;
2022/12/11 04:44:05;;;;;;;21.02;12.98;;;0.00;1.00;;;;;;6154289;23;41089;-91
2022/12/11 04:46:34;;;;;;;24.40;14.25;;;-0.10;1.00;;;;;;6109213;23;20240;-90
2022/12/11 04:49:17;;;;;;;;;;;;;;;;;;;;;
2022/12/11 04:51:46;;;;;;;25.38;14.50;;;0.00;1.00;;;;;;6106507;23;51457;-90
2022/12/11 04:54:27;;;;;;;26.30;14.75;;;0.00;1.00;;;;;;6113333;23;20364;-91
2022/12/11 04:56:58;;;;;;;30.63;14.95;;;0.10;1.00;;;;;;6141332;23;20214;-90
2022/12/11 04:59:38;;;;;;;23.58;14.13;;;0.10;1.00;;;;;;6116568;23;20220;-91
2022/12/11 05:05:52;;;;;;;26.23;13.88;;;0.10;1.00;;;;;;6136015;23;20707;-80
2022/12/11 05:08:25;;;;;;;29.05;15.13;;;0.10;1.00;;;;;;6164731;23;20248;-79
2022/12/11 05:10:57;;;;;;;26.08;14.68;;;0.10;1.00;;;;;;6165333;23;20726;-82
2022/12/11 05:13:32;;;;;;;23.45;14.38;;;0.20;1.00;;;;;;6164250;23;20213;-79
2022/12/11 05:16:04;;;;;;;23.55;14.55;;;0.20;1.00;;;;;;6165950;23;20231;-81
2022/12/11 05:18:33;;;;;;;21.50;13.48;;;0.10;1.00;;;;;;6165896;23;20235;-81
2022/12/11 05:21:04;;;;;;;23.50;15.48;;;0.10;1.00;;;;;;6165025;23;20220;-81
2022/12/11 05:23:34;;;;;;;21.27;13.60;;;0.10;1.00;;;;;;6167713;23;20213;-83
2022/12/11 05:26:19;;;;;;;21.92;13.23;;;0.10;1.00;;;;;;6153741;23;20193;-81
2022/12/11 05:28:53;;;;;;;23.50;14.50;;;0.20;1.00;;;;;;6166114;23;20213;-82
2022/12/11 05:31:25;;;;;;;20.73;14.02;;;0.20;1.00;;;;;;6167463;23;21070;-81
2022/12/11 05:33:54;;;;;;;23.95;15.00;;;0.20;1.00;;;;;;6170166;23;20228;-80
2022/12/11 05:36:31;;;;;;;22.88;14.20;;;0.10;1.00;;;;;;6163990;23;20209;-79
2022/12/11 05:38:59;;;;;;;22.50;14.13;;;0.10;1.00;;;;;;6156010;23;20247;-80
2022/12/11 05:41:31;;;;;;;20.60;13.77;;;0.10;1.00;;;;;;6162989;23;20308;-78
2022/12/11 05:44:05;;;;;;;23.75;14.30;;;0.10;1.00;;;;;;6167860;23;20269;-80
2022/12/11 05:46:32;;;;;;;23.27;15.13;;;0.10;1.00;;;;;;6166366;23;20868;-79
2022/12/11 05:49:03;;;;;;;23.38;15.10;;;0.10;1.00;;;;;;6169694;23;20244;-82
2022/12/11 05:51:33;;;;;;;21.73;13.55;;;0.10;1.00;;;;;;6165767;23;20304;-80
2022/12/11 05:54:01;;;;;;;21.88;14.63;;;0.00;1.00;;;;;;6163138;23;20212;-77
2022/12/11 05:56:30;;;;;;;22.17;13.80;;;0.00;1.00;;;;;;6165481;23;20212;-78
2022/12/11 05:59:05;;;;;;;24.42;14.80;;;-0.10;1.00;;;;;;6169801;23;20223;-82
2022/12/11 06:01:39;;;;;;;23.25;13.70;;;-0.10;1.00;;;;;;6166133;23;20232;-80
2022/12/11 06:04:09;;;;;;;24.55;14.20;;;-0.10;1.00;;;;;;6166047;23;20247;-81
2022/12/11 06:06:37;;;;;;;21.58;14.20;;;-0.10;1.00;;;;;;6160794;23;20259;-79
2022/12/11 06:09:10;;;;;;;21.92;13.75;;;-0.10;1.00;;;;;;6166076;23;20950;-82
2022/12/11 06:11:42;;;;;;;23.88;13.93;;;0.00;1.00;;;;;;6168755;23;20223;-82
2022/12/11 06:14:13;;;;;;;25.52;13.80;;;-0.10;1.00;;;;;;6169418;23;20996;-81
2022/12/11 06:16:43;;;;;;;21.63;13.15;;;-0.10;1.00;;;;;;6164857;23;20227;-81
2022/12/11 06:19:23;;;;;;;22.02;12.68;;;-0.10;1.00;;;;;;6168299;23;20247;-82
2022/12/11 06:24:43;;;;;;;19.50;12.27;;;-0.10;1.00;;;;;;6163680;23;20303;-80
2022/12/11 06:27:10;;;;;;;19.95;13.10;;;-0.20;1.00;;;;;;6167730;23;20706;-78
2022/12/11 06:29:39;;;;;;;27.00;14.75;;;-0.20;1.00;;;;;;6164969;23;20219;-80
2022/12/11 06:32:07;;;;;;;22.85;12.93;;;-0.20;1.00;;;;;;6164772;23;20220;-80
2022/12/11 06:34:34;;;;;;;17.88;11.52;;;-0.30;1.00;;;;;;6149136;23;20218;-79
2022/12/11 06:37:02;;;;;;;20.80;12.25;;;-0.30;1.00;;;;;;6161561;23;20217;-77
2022/12/11 06:39:34;;;;;;;19.48;12.05;;;-0.30;1.00;;;;;;6165953;23;20212;-78
2022/12/11 06:42:04;;;;;;;20.60;10.93;;;-0.20;1.00;;;;;;6161411;23;20272;-77
2022/12/11 06:44:34;;;;;;;19.38;11.73;;;-0.10;1.00;;;;;;6166654;23;20213;-81
2022/12/11 06:47:04;;;;;;;17.95;12.30;;;0.00;1.00;;;;;;6165692;23;20212;-80
2022/12/11 06:49:33;;;;;;;23.75;13.20;;;0.10;1.00;;;;;;6167223;23;20745;-77
2022/12/11 06:52:16;;;;;;;18.60;12.10;;;0.20;1.00;;;;;;6141603;23;20249;-78
2022/12/11 06:54:44;;;;;;;22.38;13.55;;;0.20;1.00;;;;;;6129825;23;20222;-81
2022/12/11 06:57:14;;;;;;;19.48;12.57;;;0.10;1.00;;;;;;6163347;23;20939;-81
2022/12/11 06:59:43;;;;;;;16.65;12.27;;;0.00;1.00;;;;;;6153737;23;20229;-80
2022/12/11 07:02:20;;;;;;;17.50;10.75;;;0.10;1.00;;;;;;6160559;23;20268;-81
2022/12/11 07:04:53;;;;;;;20.00;11.75;;;0.20;1.00;;;;;;6142880;23;20216;-82
2022/12/11 07:07:25;;;;;;;20.45;12.13;;;0.30;1.00;;;;;;6135564;23;20226;-82
2022/12/11 07:09:53;;;;;;;18.05;11.70;;;0.20;1.00;;;;;;6138033;23;20282;-81
2022/12/11 07:12:23;;;;;;;21.00;12.45;;;0.10;1.00;;;;;;6141480;23;20219;-82
2022/12/11 07:14:50;;;;;;;19.50;11.25;;;0.00;1.00;;;;;;6136900;23;20770;-82
2022/12/11 07:17:18;;;;;;;19.30;11.40;;;-0.10;1.00;;;;;;6121430;23;20216;-80
2022/12/11 07:19:45;;;;;;;17.67;12.02;;;-0.20;1.00;;;;;;6139847;23;20213;-82
2022/12/11 07:22:12;;;;;;;18.90;11.85;;;-0.30;1.00;;;;;;6139492;23;20231;-81
2022/12/11 07:24:39;;;;;;;18.63;11.60;;;-0.20;1.00;;;;;;6157824;23;20227;-80
2022/12/11 07:27:09;;;;;;;21.42;12.48;;;0.00;1.00;;;;;;6156681;23;20204;-82
2022/12/11 07:29:36;;;;;;;19.10;11.70;;;0.00;1.00;;;;;;6168772;23;20223;-81
2022/12/11 07:32:07;;;;;;;22.45;16.92;;;0.10;1.00;;;;;;6167951;23;21016;-78
2022/12/11 07:34:49;;;;;;;19.85;12.35;;;0.10;1.00;;;;;;6166732;23;20216;-81
2022/12/11 07:37:16;;;;;;;18.45;12.20;;;0.00;1.00;;;;;;6172030;23;20223;-82
2022/12/11 07:39:50;;;;;;;23.50;14.02;;;0.00;1.00;;;;;;6171346;23;20216;-79
2022/12/11 07:42:17;;;;;;;19.80;11.75;;;-0.10;1.00;;;;;;6171828;23;20216;-80
2022/12/11 07:44:51;;;;;;;19.65;12.70;;;-0.20;1.00;;;;;;6174386;23;20208;-79
2022/12/11 07:47:19;;;;;;;21.92;11.85;;;-0.40;1.00;;;;;;6175130;23;21119;-79
2022/12/11 07:50:00;;;;;;;21.58;11.65;;;-0.40;1.00;;;;;;6174109;23;20232;-80
2022/12/11 07:52:30;;;;;;;17.40;9.85;;;-0.40;1.00;;;;;;6172021;23;20203;-78
2022/12/11 07:54:58;;;;;;;20.70;11.65;;;-0.40;1.00;;;;;;6175405;23;20215;-80
2022/12/11 07:57:25;;;;;;;19.02;11.25;;;-0.40;1.00;;;;;;6169970;23;20215;-78
2022/12/11 07:59:54;;;;;;;18.63;11.65;;;-0.40;1.00;;;;;;6171998;23;20306;-77
2022/12/11 08:02:23;;;;;;;18.67;11.23;;;-0.40;1.00;;;;;;6167203;23;20295;-78
2022/12/11 08:05:06;;;;;;;17.65;10.40;;;-0.30;1.00;;;;;;6172988;23;20208;-81
2022/12/11 08:07:38;;;;;;;18.70;11.40;;;-0.40;1.00;;;;;;6178077;23;20279;-81
2022/12/11 08:10:07;;;;;;;19.77;10.77;;;-0.40;1.00;;;;;;6174941;23;20216;-80
2022/12/11 08:12:40;;;;;;;19.70;11.40;;;-0.40;1.00;;;;;;6172328;23;20213;-82
2022/12/11 08:15:14;;;;;;;19.50;11.43;;;-0.40;1.00;;;;;;6167418;23;20222;-82
2022/12/11 08:17:50;;;;;;;23.27;10.80;;;-0.40;1.00;;;;;;6134588;23;20220;-83
2022/12/11 08:20:21;;;;;;;21.25;11.35;;;-0.40;1.00;;;;;;6151071;23;20417;-83
2022/12/11 08:22:49;;;;;;;19.20;11.35;;;-0.40;1.00;;;;;;6164384;23;20622;-78
2022/12/11 08:25:19;;;;;;;21.25;10.52;;;-0.30;1.00;;;;;;6168844;23;20201;-81
2022/12/11 08:27:50;;;;;;;19.70;10.75;;;-0.30;1.00;;;;;;6163946;23;20922;-78
2022/12/11 08:30:21;;;;;;;17.70;11.35;;;-0.30;1.00;;;;;;6166915;23;20223;-78
2022/12/11 08:32:48;;;;;;;18.48;11.63;;;-0.30;1.00;;;;;;6164302;23;20684;-80
2022/12/11 08:35:20;;;;;;;17.75;10.77;;;-0.30;1.00;;;;;;6161198;23;20220;-79
2022/12/11 08:37:47;;;;;;;16.77;10.40;;;-0.30;1.00;;;;;;6168285;23;20229;-77
2022/12/11 08:40:19;;;;;;;18.55;10.80;;;-0.30;1.00;;;;;;6150784;23;20273;-78
2022/12/11 08:42:51;;;;;;;16.13;10.68;;;-0.20;1.00;;;;;;6169140;23;20217;-81
2022/12/11 08:45:20;;;;;;;18.17;10.80;;;-0.10;1.00;;;;;;6167540;23;20238;-79
2022/12/11 08:47:47;;;;;;;17.90;11.07;;;0.00;1.00;;;;;;6165918;23;20216;-79
2022/12/11 08:50:14;;;;;;;17.02;10.68;;;0.00;1.00;;;;;;6167180;23;20225;-81
2022/12/11 08:52:47;;;;;;;16.23;10.02;;;-0.10;1.00;;;;;;6167529;23;20302;-80
2022/12/11 08:55:15;;;;;;;23.88;11.88;;;-0.10;1.00;;;;;;6167186;23;20220;-81
2022/12/11 08:57:42;;;;;;;15.73;9.95;;;-0.10;1.00;;;;;;6169426;23;20239;-77
2022/12/11 09:00:14;;;;;;;17.55;11.20;;;0.00;1.00;;;;;;6162634;23;20308;-77
2022/12/11 09:02:41;;;;;;;17.38;10.85;;;0.00;1.00;;;;;;6165059;23;20220;-81
2022/12/11 09:05:08;;;;;;;15.68;10.55;;;0.00;1.00;;;;;;6170298;23;20279;-79
2022/12/11 09:07:39;;;;;;;21.77;11.77;;;0.00;1.00;;;;;;6171192;23;20220;-81
2022/12/11 09:10:09;;;;;;;20.70;10.98;;;0.10;1.00;;;;;;6170838;23;20830;-81
2022/12/11 09:12:39;;;;;;;17.25;10.00;;;0.10;1.00;;;;;;6169786;23;20356;-80
2022/12/11 09:15:09;;;;;;;16.60;10.13;;;0.20;1.00;;;;;;6165009;23;20251;-80
2022/12/11 09:17:36;;;;;;;18.10;9.90;;;0.20;1.00;;;;;;6164285;23;20223;-81
2022/12/11 09:20:04;;;;;;;18.77;11.32;;;0.10;1.00;;;;;;6169582;23;20227;-83
2022/12/11 09:22:33;;;;;;;16.85;10.73;;;0.10;1.00;;;;;;6143322;23;20221;-82
2022/12/11 09:25:00;;;;;;;18.25;10.50;;;0.00;1.00;;;;;;6169410;23;20221;-84
2022/12/11 09:27:35;;;;;;;17.92;11.35;;;0.00;1.00;;;;;;6168900;23;20224;-80
2022/12/11 09:30:03;;;;;;;18.83;11.35;;;0.00;1.00;;;;;;6153439;23;20209;-77
2022/12/11 09:32:38;;;;;;;18.15;11.60;;;0.00;1.00;;;;;;6149323;23;20217;-76
2022/12/11 09:35:08;;;;;;;19.33;11.15;;;0.10;1.00;;;;;;6163430;23;20215;-76
2022/12/11 09:37:36;;;;;;;19.17;12.25;;;0.10;1.00;;;;;;6149953;23;20217;-80
2022/12/11 09:40:03;;;;;;;21.23;13.45;;;0.10;1.00;;;;;;6169051;23;20216;-81
2022/12/11 09:43:00;;;;;;;19.40;10.75;;;0.10;1.00;;;;;;6142826;23;20214;-80
2022/12/11 09:45:27;;;;;;;18.48;12.02;;;0.10;1.00;;;;;;6136694;23;20212;-77
2022/12/11 09:48:02;;;;;;;20.70;13.25;;;0.10;1.00;;;;;;6162407;23;20208;-80
2022/12/11 09:50:36;;;;;;;19.30;11.57;;;0.20;1.00;;;;;;6150152;23;20270;-81
2022/12/11 09:53:21;;;;;;;20.63;12.38;;;0.30;1.00;;;;;;6157811;23;20200;-80
2022/12/11 09:56:00;;;;;;;18.98;11.35;;;0.40;1.00;;;;;;6144258;23;20661;-79
2022/12/11 09:58:54;;;;;;;17.08;10.82;;;0.30;1.00;;;;;;6148270;23;20217;-78
2022/12/11 10:01:27;;;;;;;20.00;11.25;;;0.30;1.00;;;;;;6163280;23;20209;-80
2022/12/11 10:04:11;;;;;;;19.83;10.43;;;0.30;1.00;;;;;;6160859;23;20228;-78
2022/12/11 10:06:50;;;;;;;19.13;11.93;;;0.40;1.00;;;;;;6121998;23;20213;-80
2022/12/11 10:09:26;;;;;;;20.10;10.60;;;0.30;1.00;;;;;;6132107;23;20207;-82
2022/12/11 10:12:05;;;;;;;16.60;11.77;;;0.20;1.00;;;;;;6124014;23;20238;-80
2022/12/11 10:14:52;;;;;;;18.55;11.65;;;0.30;1.00;;;;;;6109155;23;20234;-76
2022/12/11 10:17:22;;;;;;;22.00;10.90;;;0.30;1.00;;;;;;6106233;23;20245;-78
2022/12/11 10:19:50;;;;;;;17.95;12.18;;;0.30;1.00;;;;;;6107605;23;20215;-77
2022/12/11 10:22:21;;;;;;;19.65;12.20;;;0.30;1.00;;;;;;6105072;23;20280;-78
2022/12/11 10:24:57;;;;;;;18.25;12.30;;;0.30;1.00;;;;;;6106934;23;20832;-80
2022/12/11 10:27:30;;;;;;;19.10;12.05;;;0.40;1.00;;;;;;6087614;23;20217;-76
2022/12/11 10:30:16;;;;;;;21.48;12.65;;;0.40;1.00;;;;;;6137699;23;20220;-80
2022/12/11 10:32:52;;;;;;;20.98;11.65;;;0.40;1.00;;;;;;6123069;23;20215;-76
2022/12/11 10:35:40;;;;;;;20.48;11.80;;;0.40;1.00;;;;;;6116959;23;20207;-82
2022/12/11 10:38:26;;;;;;;21.45;13.20;;;0.40;1.00;;;;;;6118559;23;20222;-83
2022/12/11 10:41:03;;;;;;;22.35;12.90;;;0.40;1.00;;;;;;6125398;23;20210;-82
2022/12/11 10:43:50;;;;;;;20.00;11.75;;;0.40;1.00;;;;;;6114548;23;20950;-83
2022/12/11 10:46:21;;;;;;;20.80;11.45;;;0.20;1.00;;;;;;6109779;23;20937;-79
2022/12/11 10:48:52;;;;;;;21.33;12.05;;;0.30;1.00;;;;;;6108752;23;20239;-77
2022/12/11 10:51:25;;;;;;;23.45;12.65;;;0.20;1.00;;;;;;6105494;23;20213;-78
2022/12/11 10:53:55;;;;;;;19.98;12.63;;;0.20;1.00;;;;;;6105432;23;20298;-77
2022/12/11 10:56:34;;;;;;;20.65;12.80;;;0.20;1.00;;;;;;6107586;23;20230;-77
2022/12/11 10:59:01;;;;;;;22.25;16.50;;;0.30;1.00;;;;;;6108249;23;20220;-79
2022/12/11 11:01:34;;;;;;;17.95;11.60;;;0.30;1.00;;;;;;6110103;23;20213;-78
2022/12/11 11:04:10;;;;;;;19.52;12.80;;;0.30;1.00;;;;;;6110218;23;20218;-78
2022/12/11 11:06:38;;;;;;;22.73;13.07;;;0.30;1.00;;;;;;6144591;23;20224;-80
2022/12/11 11:09:29;;;;;;;17.00;10.75;;;0.30;1.00;;;;;;6144992;23;20213;-80
2022/12/11 11:11:57;;;;;;;20.23;11.63;;;0.40;1.00;;;;;;6158068;23;20208;-83
2022/12/11 11:14:30;;;;;;;18.15;10.77;;;0.40;1.00;;;;;;6173680;23;20236;-81
2022/12/11 11:20:09;;;;;;;19.60;10.65;;;0.40;1.00;;;;;;6181674;23;20295;-82
2022/12/11 11:22:41;;;;;;;17.27;11.13;;;0.40;1.00;;;;;;6173962;23;20220;-79
2022/12/11 11:25:21;;;;;;;16.65;10.02;;;0.40;1.00;;;;;;6174924;23;20204;-80
2022/12/11 11:28:02;;;;;;;19.38;11.02;;;0.40;1.00;;;;;;6145503;23;20215;-78
2022/12/11 11:30:34;;;;;;;21.85;12.27;;;0.40;1.00;;;;;;6160469;23;20212;-79
2022/12/11 11:33:19;;;;;;;35.53;22.52;;;0.50;1.00;;;;;;6176786;23;20213;-80
2022/12/11 11:35:56;;;;;;;18.73;10.45;;;0.60;1.00;;;;;;6172888;23;20291;-82
2022/12/11 11:38:27;;;;;;;18.17;11.27;;;0.60;1.00;;;;;;6172202;23;20953;-81
2022/12/11 11:41:04;;;;;;;21.25;11.88;;;0.50;1.00;;;;;;6175390;23;20217;-82
2022/12/11 11:43:50;;;;;;;18.95;11.20;;;0.50;1.00;;;;;;6173593;23;20217;-80
2022/12/11 11:46:23;;;;;;;18.65;11.35;;;0.50;1.00;;;;;;6170503;23;20233;-79
2022/12/11 11:49:05;;;;;;;17.27;11.13;;;0.40;1.00;;;;;;6157171;23;20209;-82
2022/12/11 11:51:40;;;;;;;18.83;10.55;;;0.50;1.00;;;;;;6158148;23;20238;-82
2022/12/11 11:54:33;;;;;;;17.17;10.90;;;0.60;1.00;;;;;;6168603;23;20209;-79
2022/12/11 11:57:12;;;;;;;21.60;11.98;;;0.60;1.00;;;;;;6173610;23;20229;-80
2022/12/11 11:59:50;;;;;;;18.80;11.30;;;0.60;1.00;;;;;;6156302;23;20268;-82
2022/12/11 12:02:19;;;;;;;18.00;10.75;;;0.60;1.00;;;;;;6168948;23;20213;-80
2022/12/11 12:04:55;;;;;;;20.60;12.35;;;0.70;1.00;;;;;;6174753;23;20191;-81
2022/12/11 12:07:37;;;;;;;19.98;12.85;;;0.80;1.00;;;;;;6171653;23;20207;-79
2022/12/11 12:10:16;;;;;;;18.70;11.85;;;0.80;1.00;;;;;;6172764;23;20216;-80
2022/12/11 12:12:57;;;;;;;20.50;11.48;;;0.90;1.00;;;;;;6173260;23;20192;-80
2022/12/11 12:15:43;;;;;;;25.38;12.30;;;0.90;1.00;;;;;;6169079;23;20272;-80
2022/12/11 12:18:21;;;;;;;19.85;10.85;;;1.00;1.00;;;;;;6174308;23;20217;-80
2022/12/11 12:21:00;;;;;;;18.92;11.07;;;1.00;1.00;;;;;;6163787;23;20232;-82
2022/12/11 12:23:45;;;;;;;18.70;11.27;;;1.00;1.00;;;;;;6176452;23;20216;-81
2022/12/11 12:26:20;;;;;;;18.63;11.20;;;1.10;1.00;;;;;;6177884;23;20233;-81
2022/12/11 12:29:21;;;;;;;16.00;10.32;;;1.20;1.00;;;;;;6159752;23;20249;-78
2022/12/11 12:32:10;;;;;;;20.17;11.55;;;1.20;1.00;;;;;;6179053;23;20197;-82
2022/12/11 12:34:59;;;;;;;23.73;13.88;;;1.30;1.00;;;;;;6173882;23;20231;-79
2022/12/11 12:37:50;;;;;;;18.50;12.48;;;1.30;1.00;;;;;;6180579;23;20288;-82
2022/12/11 12:40:34;;;;;;;17.60;12.30;;;1.30;1.00;;;;;;6168471;23;20228;-83
2022/12/11 12:43:21;;;;;;;20.00;12.68;;;1.30;1.00;;;;;;6178918;23;20209;-80
2022/12/11 12:46:01;;;;;;;22.25;11.70;;;1.20;1.00;;;;;;6178982;23;20228;-80
2022/12/11 12:48:33;;;;;;;19.23;12.30;;;1.20;1.00;;;;;;6166542;23;20238;-83
2022/12/11 12:54:04;;;;;;;21.02;13.30;;;1.20;1.00;;;;;;6179184;23;20193;-82
2022/12/11 12:56:42;;;;;;;19.30;11.65;;;1.10;1.00;;;;;;6179404;23;20212;-81
2022/12/11 12:59:21;;;;;;;19.15;11.55;;;1.10;1.00;;;;;;6178064;23;20204;-80
2022/12/11 13:01:58;;;;;;;20.58;11.85;;;1.00;1.00;;;;;;6177180;23;20216;-80
2022/12/11 13:04:56;;;;;;;18.80;11.18;;;1.00;1.00;;;;;;6177861;23;20272;-82
2022/12/11 13:10:31;;;;;;;19.77;12.63;;;0.90;1.00;;;;;;6176340;23;20220;-83
2022/12/11 13:13:03;;;;;;;22.05;15.27;;;0.90;1.00;;;;;;6159658;23;20213;-83
2022/12/11 13:15:39;;;;;;;22.58;14.10;;;0.90;1.00;;;;;;6162093;23;20212;-83
2022/12/11 13:18:35;;;;;;;20.55;12.63;;;0.90;1.00;;;;;;6145535;23;20217;-79
2022/12/11 13:21:33;;;;;;;17.33;11.60;;;1.00;1.00;;;;;;6114491;23;20221;-82
2022/12/11 13:24:26;;;;;;;19.23;11.45;;;1.00;1.00;;;;;;6169255;23;20220;-79
2022/12/11 13:27:14;;;;;;;20.33;13.05;;;1.10;1.00;;;;;;6173497;23;20197;-78
2022/12/11 13:29:43;;;;;;;19.13;13.10;;;1.10;1.00;;;;;;6175313;23;20212;-81
2022/12/11 13:32:24;;;;;;;17.98;11.57;;;1.10;1.00;;;;;;6174765;23;20209;-80
2022/12/11 13:34:59;;;;;;;21.15;11.68;;;1.00;1.00;;;;;;6146773;23;20217;-83
2022/12/11 13:37:34;;;;;;;22.52;13.13;;;1.00;1.00;;;;;;6138827;23;20228;-83
2022/12/11 13:40:05;;;;;;;22.73;12.77;;;1.00;1.00;;;;;;6144688;23;20213;-78
2022/12/11 13:42:47;;;;;;;21.17;13.60;;;1.00;1.00;;;;;;6137553;23;20254;-80
2022/12/11 13:45:23;;;;;;;18.48;11.15;;;1.00;1.00;;;;;;6144984;23;20281;-80
2022/12/11 13:47:59;;;;;;;19.15;12.25;;;1.00;1.00;;;;;;6154746;23;20209;-80
2022/12/11 13:50:39;;;;;;;22.55;14.52;;;1.00;1.00;;;;;;6132943;23;20720;-79
2022/12/11 13:53:16;;;;;;;19.00;12.57;;;1.10;1.00;;;;;;6147844;23;20241;-78
2022/12/11 13:55:45;;;;;;;21.67;13.30;;;1.00;1.00;;;;;;6157321;23;20220;-82
2022/12/11 13:58:22;;;;;;;20.63;13.07;;;1.00;1.00;;;;;;6135154;23;20451;-80
2022/12/11 14:01:16;;;;;;;20.50;12.27;;;1.00;1.00;;;;;;6149592;23;20215;-85
2022/12/11 14:03:58;;;;;;;20.95;12.20;;;0.90;1.00;;;;;;6146879;23;20284;-80
2022/12/11 14:06:39;;;;;;;18.77;12.15;;;0.90;1.00;;;;;;6146842;23;21090;-81
2022/12/11 14:09:08;;;;;;;15.77;11.57;;;0.90;1.00;;;;;;6149941;23;20268;-80